Time;durP1;ratioP1;P1;durP2;ratioP2;P2;SDS_P1;SDS_P2;PMS_P1;PMS_P2;Temp;Humidity;BMP_temperature;BMP_pressure;BME280_temperature;BME280_humidity;BME280_pressure;Samples;Min_cycle;Max_cycle;Signal;HPM_P1;HPM_P2
2021/08/08 00:01:10;;;;;;;;;;;24.00;62.40;;;;;;5133681;27;20378;-60
2021/08/08 00:03:37;;;;;;;;;;;24.00;62.50;;;;;;5132217;27;19923;-59
2021/08/08 00:06:04;;;;;;;;;;;24.00;62.70;;;;;;5133705;27;19923;-59
2021/08/08 00:08:31;;;;;;;;;;;24.00;62.70;;;;;;5114171;27;20031;-59
2021/08/08 00:10:58;;;;;;;;;;;24.00;62.60;;;;;;5131118;27;19923;-60
2021/08/08 00:13:25;;;;;;;;;;;24.00;62.70;;;;;;5114794;27;19970;-61
2021/08/08 00:15:52;;;;;;;;;;;24.00;62.90;;;;;;5133547;27;19924;-59
2021/08/08 00:18:20;;;;;;;;;;;24.00;63.00;;;;;;5132318;27;19930;-60
2021/08/08 00:20:47;;;;;;;;;;;24.00;63.70;;;;;;5133539;28;20410;-60
2021/08/08 00:23:14;;;;;;;;;;;24.00;62.90;;;;;;5132359;28;19924;-60
2021/08/08 00:25:41;;;;;;;;;;;24.00;63.10;;;;;;5132648;28;19932;-61
2021/08/08 00:28:08;;;;;;;;;;;24.10;63.20;;;;;;5131968;28;19930;-60
2021/08/08 00:30:35;;;;;;;;;;;24.10;63.20;;;;;;5133552;28;19930;-59
2021/08/08 00:33:02;;;;;;;;;;;24.10;63.20;;;;;;5132117;27;20443;-60
2021/08/08 00:35:29;;;;;;;;;;;24.10;63.30;;;;;;5138355;27;19927;-59
2021/08/08 00:37:56;;;;;;;;;;;24.00;63.20;;;;;;5137200;27;20289;-59
2021/08/08 00:40:23;;;;;;;;;;;24.00;63.40;;;;;;5136643;27;19962;-59
2021/08/08 00:42:50;;;;;;;;;;;24.00;63.30;;;;;;5137894;27;19923;-59
2021/08/08 00:45:19;;;;;;;;;;;24.00;63.40;;;;;;5136705;27;19927;-59
2021/08/08 00:47:46;;;;;;;;;;;24.00;63.50;;;;;;5137718;27;19991;-60
2021/08/08 00:50:15;;;;;;;;;;;24.10;63.60;;;;;;5136010;27;19968;-59
2021/08/08 00:52:42;;;;;;;;;;;24.00;63.60;;;;;;5135903;27;19953;-60
2021/08/08 00:55:10;;;;;;;;;;;24.00;63.70;;;;;;5134780;27;19992;-59
2021/08/08 00:57:37;;;;;;;;;;;24.00;63.80;;;;;;5136028;27;19972;-59
2021/08/08 01:00:06;;;;;;;;;;;24.00;64.70;;;;;;5135847;27;19924;-60
2021/08/08 01:02:34;;;;;;;;;;;24.00;63.90;;;;;;5135623;27;20367;-59
2021/08/08 01:05:06;;;;;;;;;;;24.00;63.90;;;;;;5126917;27;20011;-59
2021/08/08 01:07:40;;;;;;;;;;;24.00;63.80;;;;;;5120638;27;19930;-59
2021/08/08 01:10:07;;;;;;;;;;;24.00;63.90;;;;;;5128809;27;20402;-60
2021/08/08 01:12:36;;;;;;;;;;;24.00;64.00;;;;;;5137096;27;19968;-60
2021/08/08 01:15:03;;;;;;;;;;;24.00;64.00;;;;;;5136047;27;19927;-59
2021/08/08 01:17:30;;;;;;;;;;;24.00;64.00;;;;;;5137106;27;19924;-60
2021/08/08 01:20:03;;;;;;;;;;;24.00;64.10;;;;;;5134731;27;19923;-59
2021/08/08 01:22:31;;;;;;;;;;;24.00;64.10;;;;;;5134135;27;19966;-59
2021/08/08 01:24:59;;;;;;;;;;;24.00;64.30;;;;;;5135653;27;19928;-59
2021/08/08 01:27:27;;;;;;;;;;;24.00;64.30;;;;;;5117187;27;19939;-60
2021/08/08 01:29:54;;;;;;;;;;;24.00;64.20;;;;;;5136615;27;19923;-60
2021/08/08 01:32:22;;;;;;;;;;;24.00;64.20;;;;;;5134571;27;20347;-60
2021/08/08 01:34:49;;;;;;;;;;;24.00;64.10;;;;;;5135154;27;19924;-60
2021/08/08 01:37:18;;;;;;;;;;;24.00;64.10;;;;;;5136102;27;19976;-60
2021/08/08 01:39:47;;;;;;;;;;;24.00;64.10;;;;;;5136515;27;19953;-60
2021/08/08 01:42:15;;;;;;;;;;;24.00;64.20;;;;;;5135596;27;20436;-61
2021/08/08 01:44:46;;;;;;;;;;;24.00;64.20;;;;;;5117079;28;19928;-59
2021/08/08 01:47:14;;;;;;;;;;;24.00;64.30;;;;;;5136323;27;19938;-60
2021/08/08 01:49:45;;;;;;;;;;;24.00;64.30;;;;;;5136440;27;19928;-60
2021/08/08 01:52:12;;;;;;;;;;;23.90;64.30;;;;;;5135207;27;19923;-60
2021/08/08 01:54:39;;;;;;;;;;;24.00;64.40;;;;;;5133977;27;19923;-60
2021/08/08 01:57:09;;;;;;;;;;;23.90;64.40;;;;;;5134232;27;19924;-60
2021/08/08 01:59:37;;;;;;;;;;;23.90;64.40;;;;;;5121842;27;19980;-60
2021/08/08 02:02:07;;;;;;;;;;;23.90;65.20;;;;;;5112452;27;19965;-59
2021/08/08 02:04:35;;;;;;;;;;;23.90;64.50;;;;;;5121501;27;19928;-60
2021/08/08 02:07:03;;;;;;;;;;;23.90;64.60;;;;;;5131515;27;19923;-60
2021/08/08 02:09:29;;;;;;;;;;;23.90;64.60;;;;;;5136269;27;20328;-60
2021/08/08 02:11:56;;;;;;;;;;;23.90;64.50;;;;;;5133219;27;20014;-60
2021/08/08 02:14:23;;;;;;;;;;;23.90;64.60;;;;;;5133302;27;20726;-59
2021/08/08 02:16:50;;;;;;;;;;;23.90;64.60;;;;;;5134512;27;20371;-60
2021/08/08 02:19:17;;;;;;;;;;;23.90;64.60;;;;;;5134569;27;19972;-60
2021/08/08 02:21:45;;;;;;;;;;;23.90;64.60;;;;;;5135790;27;20014;-60
2021/08/08 02:24:12;;;;;;;;;;;23.90;64.60;;;;;;5135556;27;19976;-60
2021/08/08 02:26:39;;;;;;;;;;;23.90;64.60;;;;;;5133298;27;19980;-60
2021/08/08 02:29:06;;;;;;;;;;;23.90;64.50;;;;;;5135623;27;19927;-60
2021/08/08 02:31:37;;;;;;;;;;;24.00;64.60;;;;;;5134273;27;19927;-60
2021/08/08 02:34:04;;;;;;;;;;;23.90;64.50;;;;;;5134477;27;20016;-60
2021/08/08 02:36:31;;;;;;;;;;;24.00;64.60;;;;;;5133867;27;19923;-60
2021/08/08 02:38:59;;;;;;;;;;;24.00;64.60;;;;;;5134543;27;20275;-60
2021/08/08 02:41:26;;;;;;;;;;;24.00;64.60;;;;;;5135226;27;19931;-60
2021/08/08 02:43:53;;;;;;;;;;;24.00;64.60;;;;;;5134296;27;19974;-60
2021/08/08 02:46:20;;;;;;;;;;;24.00;64.60;;;;;;5135694;27;19924;-60
2021/08/08 02:48:48;;;;;;;;;;;23.90;64.80;;;;;;5135546;27;20328;-60
2021/08/08 02:51:16;;;;;;;;;;;23.90;64.50;;;;;;5135624;27;19931;-59
2021/08/08 02:53:43;;;;;;;;;;;23.90;64.60;;;;;;5117205;27;19977;-60
2021/08/08 02:56:10;;;;;;;;;;;23.90;64.60;;;;;;5131587;27;19980;-59
2021/08/08 02:58:37;;;;;;;;;;;23.90;64.70;;;;;;5133585;27;20000;-60
2021/08/08 03:01:06;;;;;;;;;;;23.90;64.70;;;;;;5135240;27;19923;-59
2021/08/08 03:03:34;;;;;;;;;;;23.90;64.80;;;;;;5117275;27;19923;-61
2021/08/08 03:06:01;;;;;;;;;;;23.90;64.80;;;;;;5132187;27;19972;-60
2021/08/08 03:08:48;;;;;;;;;;;24.00;64.80;;;;;;5132190;27;20022;-60
2021/08/08 03:11:15;;;;;;;;;;;24.00;64.80;;;;;;5133406;27;19923;-60
2021/08/08 03:13:42;;;;;;;;;;;23.90;64.70;;;;;;5132070;27;19923;-60
2021/08/08 03:16:09;;;;;;;;;;;23.90;64.80;;;;;;5133333;27;20296;-61
2021/08/08 03:18:36;;;;;;;;;;;23.90;64.80;;;;;;5131937;27;19923;-60
2021/08/08 03:21:04;;;;;;;;;;;23.90;64.80;;;;;;5133736;27;19923;-60
2021/08/08 03:23:31;;;;;;;;;;;23.90;64.80;;;;;;5132067;27;19924;-60
2021/08/08 03:25:58;;;;;;;;;;;23.90;64.80;;;;;;5134744;27;19935;-60
2021/08/08 03:28:24;;;;;;;;;;;23.90;64.80;;;;;;5133142;27;19927;-60
2021/08/08 03:30:51;;;;;;;;;;;23.90;64.80;;;;;;5132810;27;19945;-60
2021/08/08 03:33:18;;;;;;;;;;;23.90;64.80;;;;;;5134473;27;19923;-60
2021/08/08 03:35:45;;;;;;;;;;;23.90;64.90;;;;;;5133073;27;20620;-60
2021/08/08 03:38:12;;;;;;;;;;;23.90;64.90;;;;;;5134220;27;20426;-60
2021/08/08 03:40:39;;;;;;;;;;;23.90;65.00;;;;;;5132331;27;19992;-61
2021/08/08 03:43:06;;;;;;;;;;;23.90;65.70;;;;;;5115776;27;19923;-60
2021/08/08 03:45:33;;;;;;;;;;;23.90;65.10;;;;;;5134621;27;19923;-60
2021/08/08 03:48:00;;;;;;;;;;;23.90;65.10;;;;;;5131791;27;19923;-60
2021/08/08 03:50:27;;;;;;;;;;;23.90;65.20;;;;;;5113834;28;19923;-60
2021/08/08 03:52:54;;;;;;;;;;;23.90;65.10;;;;;;5133467;27;19927;-60
2021/08/08 03:55:21;;;;;;;;;;;23.90;65.10;;;;;;5132615;27;19927;-60
2021/08/08 03:57:48;;;;;;;;;;;23.90;65.10;;;;;;5117942;27;20019;-60
2021/08/08 04:00:16;;;;;;;;;;;23.90;65.10;;;;;;5129436;27;20283;-60
2021/08/08 04:02:43;;;;;;;;;;;23.90;65.10;;;;;;5114792;27;20264;-60
2021/08/08 04:05:10;;;;;;;;;;;23.90;65.20;;;;;;5132766;27;20010;-61
2021/08/08 04:07:37;;;;;;;;;;;23.90;65.20;;;;;;5130559;27;20387;-59
2021/08/08 04:10:04;;;;;;;;;;;23.90;65.20;;;;;;5133337;27;20379;-60
2021/08/08 04:12:31;;;;;;;;;;;23.90;65.30;;;;;;5133944;27;19959;-60
2021/08/08 04:15:00;;;;;;;;;;;23.90;65.30;;;;;;5133419;27;19924;-60
2021/08/08 04:17:27;;;;;;;;;;;23.90;65.40;;;;;;5132421;27;20305;-60
2021/08/08 04:19:54;;;;;;;;;;;23.90;65.40;;;;;;5132454;27;20328;-60
2021/08/08 04:22:21;;;;;;;;;;;23.90;65.40;;;;;;5125986;27;19945;-59
2021/08/08 04:24:48;;;;;;;;;;;23.90;65.50;;;;;;5121911;28;20402;-59
2021/08/08 04:27:15;;;;;;;;;;;23.90;65.40;;;;;;5132346;28;20364;-59
2021/08/08 04:29:42;;;;;;;;;;;23.90;65.30;;;;;;5132110;28;19968;-60
2021/08/08 04:32:09;;;;;;;;;;;23.90;65.30;;;;;;5133338;28;19927;-59
2021/08/08 04:34:37;;;;;;;;;;;23.90;65.40;;;;;;5132198;28;19977;-59
2021/08/08 04:37:04;;;;;;;;;;;23.90;65.40;;;;;;5115607;28;20019;-60
2021/08/08 04:39:31;;;;;;;;;;;23.90;65.30;;;;;;5114344;28;19923;-60
2021/08/08 04:41:58;;;;;;;;;;;23.90;65.20;;;;;;5132162;28;19927;-61
2021/08/08 04:44:25;;;;;;;;;;;23.90;65.20;;;;;;5131500;28;19927;-60
2021/08/08 04:46:52;;;;;;;;;;;23.90;65.30;;;;;;5132506;28;19927;-59
2021/08/08 04:49:19;;;;;;;;;;;23.90;65.40;;;;;;5133598;28;19924;-60
2021/08/08 04:51:46;;;;;;;;;;;23.90;65.40;;;;;;5133639;28;19924;-59
2021/08/08 04:54:13;;;;;;;;;;;23.90;65.50;;;;;;5132567;28;19930;-60
2021/08/08 04:56:40;;;;;;;;;;;23.90;65.40;;;;;;5133188;28;19927;-60
2021/08/08 04:59:07;;;;;;;;;;;23.90;65.50;;;;;;5131754;28;20328;-60
2021/08/08 05:01:34;;;;;;;;;;;23.90;65.50;;;;;;5131123;28;19969;-60
2021/08/08 05:04:03;;;;;;;;;;;23.90;65.50;;;;;;5130100;28;20201;-60
2021/08/08 05:06:30;;;;;;;;;;;23.90;65.50;;;;;;5132168;28;20313;-60
2021/08/08 05:08:57;;;;;;;;;;;23.90;65.10;;;;;;5133112;28;19958;-60
2021/08/08 05:11:24;;;;;;;;;;;23.90;65.20;;;;;;5130800;28;19934;-60
2021/08/08 05:13:51;;;;;;;;;;;23.90;65.20;;;;;;5114845;28;19934;-60
2021/08/08 05:16:18;;;;;;;;;;;23.90;65.30;;;;;;5131789;28;19923;-60
2021/08/08 05:18:45;;;;;;;;;;;23.90;65.30;;;;;;5133333;27;19924;-60
2021/08/08 05:21:12;;;;;;;;;;;24.00;65.30;;;;;;5136957;27;19924;-59
2021/08/08 05:23:39;;;;;;;;;;;24.00;65.20;;;;;;5136972;27;19924;-60
2021/08/08 05:26:06;;;;;;;;;;;24.00;65.10;;;;;;5136945;27;20328;-60
2021/08/08 05:28:33;;;;;;;;;;;24.00;65.10;;;;;;5136499;27;19924;-60
2021/08/08 05:31:00;;;;;;;;;;;24.10;65.10;;;;;;5136921;27;19931;-60
2021/08/08 05:33:27;;;;;;;;;;;24.10;64.90;;;;;;5135149;27;19924;-60
2021/08/08 05:35:54;;;;;;;;;;;24.10;64.70;;;;;;5118789;27;19924;-60
2021/08/08 05:38:21;;;;;;;;;;;24.10;64.70;;;;;;5134599;27;19928;-60
2021/08/08 05:40:48;;;;;;;;;;;24.10;64.60;;;;;;5135675;27;19923;-60
2021/08/08 05:43:15;;;;;;;;;;;24.10;64.40;;;;;;5136098;27;20353;-60
2021/08/08 05:45:46;;;;;;;;;;;24.10;64.50;;;;;;5134925;27;19928;-60
2021/08/08 05:48:14;;;;;;;;;;;24.20;64.50;;;;;;5135215;27;19923;-59
2021/08/08 05:50:41;;;;;;;;;;;24.20;64.50;;;;;;5121012;27;19928;-60
2021/08/08 05:53:08;;;;;;;;;;;24.10;64.40;;;;;;5133973;27;19976;-60
2021/08/08 05:55:44;;;;;;;;;;;24.20;64.50;;;;;;5136220;27;19924;-60
2021/08/08 05:58:11;;;;;;;;;;;24.20;64.40;;;;;;5136008;27;19983;-60
2021/08/08 06:00:38;;;;;;;;;;;24.20;64.40;;;;;;5136258;27;19923;-60
2021/08/08 06:03:06;;;;;;;;;;;24.10;64.30;;;;;;5133639;27;19930;-61
2021/08/08 06:05:33;;;;;;;;;;;24.20;64.30;;;;;;5134864;27;19930;-60
2021/08/08 06:08:01;;;;;;;;;;;24.20;64.20;;;;;;5135888;27;19976;-60
2021/08/08 06:10:28;;;;;;;;;;;24.20;64.20;;;;;;5133666;27;19972;-59
2021/08/08 06:12:55;;;;;;;;;;;24.20;64.00;;;;;;5134349;27;19923;-60
2021/08/08 06:15:22;;;;;;;;;;;24.20;64.10;;;;;;5134387;27;19978;-60
2021/08/08 06:17:50;;;;;;;;;;;24.20;63.80;;;;;;5134717;27;20343;-59
2021/08/08 06:20:18;;;;;;;;;;;24.20;63.70;;;;;;5135675;27;19939;-60
2021/08/08 06:22:45;;;;;;;;;;;24.30;63.70;;;;;;5135790;27;20379;-60
2021/08/08 06:25:12;;;;;;;;;;;24.20;63.40;;;;;;5131018;27;19999;-60
2021/08/08 06:27:39;;;;;;;;;;;24.30;63.40;;;;;;5120685;27;19967;-59
2021/08/08 06:30:06;;;;;;;;;;;24.30;63.00;;;;;;5135792;27;19972;-60
2021/08/08 06:32:33;;;;;;;;;;;24.20;63.00;;;;;;5133169;27;19959;-61
2021/08/08 06:35:00;;;;;;;;;;;24.30;63.20;;;;;;5134330;27;19932;-59
2021/08/08 06:37:27;;;;;;;;;;;24.30;62.60;;;;;;5135072;27;19923;-59
2021/08/08 06:39:54;;;;;;;;;;;24.30;62.80;;;;;;5135242;27;19923;-60
2021/08/08 06:42:21;;;;;;;;;;;24.30;63.00;;;;;;5134592;27;19931;-59
2021/08/08 06:44:48;;;;;;;;;;;24.30;62.60;;;;;;5134565;27;19924;-60
2021/08/08 06:47:15;;;;;;;;;;;24.30;62.20;;;;;;5114717;27;19931;-60
2021/08/08 06:49:42;;;;;;;;;;;24.30;62.30;;;;;;5132690;27;19923;-60
2021/08/08 06:52:09;;;;;;;;;;;24.30;62.40;;;;;;5134079;27;19923;-60
2021/08/08 06:54:36;;;;;;;;;;;24.30;62.60;;;;;;5133634;27;19923;-60
2021/08/08 06:57:03;;;;;;;;;;;24.30;62.50;;;;;;5134613;27;19924;-60
2021/08/08 06:59:30;;;;;;;;;;;24.40;62.40;;;;;;5135034;27;20328;-60
2021/08/08 07:01:57;;;;;;;;;;;24.40;61.90;;;;;;5133383;27;19923;-60
2021/08/08 07:04:25;;;;;;;;;;;24.40;62.20;;;;;;5133262;27;20382;-61
2021/08/08 07:06:52;;;;;;;;;;;24.40;62.30;;;;;;5135025;27;19935;-60
2021/08/08 07:09:19;;;;;;;;;;;24.40;62.20;;;;;;5133473;27;19978;-59
2021/08/08 07:11:46;;;;;;;;;;;24.40;62.20;;;;;;5128326;27;20007;-60
2021/08/08 07:14:13;;;;;;;;;;;24.40;62.00;;;;;;5123193;27;19923;-60
2021/08/08 07:16:40;;;;;;;;;;;24.40;62.00;;;;;;5128860;27;20440;-59
2021/08/08 07:19:07;;;;;;;;;;;24.40;62.00;;;;;;5119373;27;20002;-59
2021/08/08 07:21:34;;;;;;;;;;;24.40;61.90;;;;;;5133273;27;20339;-60
2021/08/08 07:24:09;;;;;;;;;;;24.40;62.00;;;;;;5133370;27;19927;-60
2021/08/08 07:26:36;;;;;;;;;;;24.40;62.00;;;;;;5133331;27;19923;-60
2021/08/08 07:29:03;;;;;;;;;;;24.40;62.00;;;;;;5133512;27;19923;-60
2021/08/08 07:31:44;;;;;;;;;;;24.50;61.80;;;;;;5131745;27;19943;-60
2021/08/08 07:34:11;;;;;;;;;;;24.40;61.90;;;;;;5131749;27;20417;-61
2021/08/08 07:36:38;;;;;;;;;;;24.50;61.90;;;;;;5132161;27;19989;-60
2021/08/08 07:39:05;;;;;;;;;;;24.50;61.70;;;;;;5132744;27;19972;-59
2021/08/08 07:41:32;;;;;;;;;;;24.60;61.60;;;;;;5133384;27;20350;-59
2021/08/08 07:43:59;;;;;;;;;;;24.60;61.60;;;;;;5133559;27;19932;-61
2021/08/08 07:46:26;;;;;;;;;;;24.60;61.50;;;;;;5134501;27;19935;-60
2021/08/08 07:48:54;;;;;;;;;;;24.60;61.20;;;;;;5132576;27;19973;-59
2021/08/08 07:51:20;;;;;;;;;;;24.60;61.20;;;;;;5132481;27;19928;-59
2021/08/08 07:53:48;;;;;;;;;;;24.60;61.30;;;;;;5133040;27;19935;-60
2021/08/08 07:56:15;;;;;;;;;;;24.60;61.10;;;;;;5113478;27;19927;-59
2021/08/08 07:58:42;;;;;;;;;;;24.60;61.20;;;;;;5132615;27;19930;-60
2021/08/08 08:01:09;;;;;;;;;;;24.70;61.00;;;;;;5131709;27;19923;-60
2021/08/08 08:03:36;;;;;;;;;;;24.80;60.80;;;;;;5133747;27;19953;-61
2021/08/08 08:06:03;;;;;;;;;;;24.80;60.70;;;;;;5133735;27;19955;-60
2021/08/08 08:08:30;;;;;;;;;;;24.90;60.60;;;;;;5123956;27;19923;-60
2021/08/08 08:10:57;;;;;;;;;;;24.90;60.70;;;;;;5117111;27;19947;-59
2021/08/08 08:13:24;;;;;;;;;;;25.00;61.10;;;;;;5115688;28;20329;-60
2021/08/08 08:15:51;;;;;;;;;;;25.00;59.70;;;;;;5121164;28;19935;-59
2021/08/08 08:18:18;;;;;;;;;;;25.00;60.10;;;;;;5133907;27;20298;-59
2021/08/08 08:20:46;;;;;;;;;;;25.00;59.10;;;;;;5133592;27;19923;-59
2021/08/08 08:23:13;;;;;;;;;;;25.00;59.60;;;;;;5132675;27;19932;-60
2021/08/08 08:25:42;;;;;;;;;;;25.00;60.10;;;;;;5132452;28;19928;-60
2021/08/08 08:28:12;;;;;;;;;;;24.90;60.00;;;;;;5132244;28;19927;-61
2021/08/08 08:30:39;;;;;;;;;;;24.90;60.30;;;;;;5133742;28;19923;-60
2021/08/08 08:33:06;;;;;;;;;;;24.90;60.50;;;;;;5133497;28;19977;-60
2021/08/08 08:35:40;;;;;;;;;;;24.90;60.00;;;;;;5113373;28;20371;-59
2021/08/08 08:38:08;;;;;;;;;;;24.80;59.80;;;;;;5131004;28;19923;-60
2021/08/08 08:40:36;;;;;;;;;;;24.80;59.50;;;;;;5132691;28;19923;-59
2021/08/08 08:43:05;;;;;;;;;;;24.90;59.30;;;;;;5132159;28;19973;-60
2021/08/08 08:45:34;;;;;;;;;;;24.80;59.60;;;;;;5132073;28;19923;-60
2021/08/08 08:48:01;;;;;;;;;;;24.90;59.70;;;;;;5132396;28;19928;-60
2021/08/08 08:50:28;;;;;;;;;;;24.80;59.50;;;;;;5132064;28;19923;-59
2021/08/08 08:52:55;;;;;;;;;;;24.80;59.60;;;;;;5132418;28;19923;-60
2021/08/08 08:55:22;;;;;;;;;;;24.80;60.00;;;;;;5135534;27;19923;-59
2021/08/08 08:57:49;;;;;;;;;;;24.80;60.00;;;;;;5134950;27;19953;-59
2021/08/08 09:00:17;;;;;;;;;;;24.80;60.20;;;;;;5134731;27;19924;-59
2021/08/08 09:02:44;;;;;;;;;;;24.90;59.90;;;;;;5137455;27;19927;-60
2021/08/08 09:05:11;;;;;;;;;;;24.90;59.70;;;;;;5135930;27;19934;-60
2021/08/08 09:07:39;;;;;;;;;;;24.90;59.60;;;;;;5108494;28;20006;-60
2021/08/08 09:10:10;;;;;;;;;;;25.00;59.40;;;;;;5127393;27;19923;-60
2021/08/08 09:12:37;;;;;;;;;;;25.00;59.30;;;;;;5127492;27;20302;-60
2021/08/08 09:15:05;;;;;;;;;;;25.10;59.20;;;;;;5126086;27;19953;-60
2021/08/08 09:17:38;;;;;;;;;;;25.10;58.50;;;;;;5135736;27;19958;-60
2021/08/08 09:20:10;;;;;;;;;;;25.10;59.10;;;;;;5135300;27;19973;-61
2021/08/08 09:22:38;;;;;;;;;;;25.10;58.80;;;;;;5134348;27;19993;-60
2021/08/08 09:25:08;;;;;;;;;;;25.10;58.80;;;;;;5136740;27;20399;-60
2021/08/08 09:27:36;;;;;;;;;;;25.20;58.30;;;;;;5133980;27;19929;-59
2021/08/08 09:30:04;;;;;;;;;;;25.10;58.30;;;;;;5135489;27;19923;-60
2021/08/08 09:32:32;;;;;;;;;;;25.10;58.70;;;;;;5135567;27;19935;-60
2021/08/08 09:35:04;;;;;;;;;;;25.10;58.50;;;;;;5135486;27;20260;-60
2021/08/08 09:37:31;;;;;;;;;;;25.20;58.70;;;;;;5134005;27;19923;-60
2021/08/08 09:39:58;;;;;;;;;;;25.30;58.40;;;;;;5133986;27;19984;-60
2021/08/08 09:42:26;;;;;;;;;;;25.30;58.50;;;;;;5135509;27;19993;-60
2021/08/08 09:44:54;;;;;;;;;;;25.30;58.40;;;;;;5116225;28;19923;-61
2021/08/08 09:47:22;;;;;;;;;;;25.30;57.70;;;;;;5099969;27;19972;-60
2021/08/08 09:49:59;;;;;;;;;;;25.30;57.90;;;;;;5100688;27;20023;-60
2021/08/08 09:52:26;;;;;;;;;;;25.30;58.00;;;;;;5135282;27;19928;-61
2021/08/08 09:54:53;;;;;;;;;;;25.30;58.10;;;;;;5117520;27;20341;-60
2021/08/08 09:57:20;;;;;;;;;;;25.40;58.10;;;;;;5136090;27;20272;-60
2021/08/08 09:59:48;;;;;;;;;;;25.40;58.00;;;;;;5119519;27;19924;-60
2021/08/08 10:02:19;;;;;;;;;;;25.50;58.00;;;;;;5117974;27;19928;-61
2021/08/08 10:04:50;;;;;;;;;;;25.50;57.90;;;;;;5134715;27;20256;-60
2021/08/08 10:07:18;;;;;;;;;;;25.60;57.80;;;;;;5133356;27;19924;-60
2021/08/08 10:09:49;;;;;;;;;;;25.60;57.60;;;;;;5116974;27;19930;-60
2021/08/08 10:12:22;;;;;;;;;;;25.60;56.60;;;;;;5134535;27;19923;-60
2021/08/08 10:14:51;;;;;;;;;;;25.70;57.20;;;;;;5133295;27;19924;-60
2021/08/08 10:17:18;;;;;;;;;;;25.70;57.20;;;;;;5133765;27;19923;-60
2021/08/08 10:19:47;;;;;;;;;;;25.80;57.20;;;;;;5134627;27;19963;-60
2021/08/08 10:22:15;;;;;;;;;;;25.80;56.10;;;;;;5136077;27;19931;-60
2021/08/08 10:24:47;;;;;;;;;;;25.80;56.40;;;;;;5134481;27;19953;-60
2021/08/08 10:27:21;;;;;;;;;;;25.90;56.30;;;;;;5135424;27;19927;-60
2021/08/08 10:29:49;;;;;;;;;;;25.90;56.70;;;;;;5133080;27;20383;-60
2021/08/08 10:32:16;;;;;;;;;;;25.90;56.30;;;;;;5134240;27;20332;-60
2021/08/08 10:34:43;;;;;;;;;;;25.90;56.60;;;;;;5133068;27;19924;-60
2021/08/08 10:37:10;;;;;;;;;;;25.90;56.50;;;;;;5134293;27;19923;-60
2021/08/08 10:39:40;;;;;;;;;;;25.90;56.30;;;;;;5135705;27;19973;-60
2021/08/08 10:42:07;;;;;;;;;;;25.90;56.00;;;;;;5135583;27;19928;-60
2021/08/08 10:44:49;;;;;;;;;;;25.90;56.30;;;;;;5132785;27;19977;-61
2021/08/08 10:47:26;;;;;;;;;;;26.00;56.40;;;;;;5134316;27;19927;-59
2021/08/08 10:49:53;;;;;;;;;;;26.00;56.30;;;;;;5135485;27;19969;-60
2021/08/08 10:52:20;;;;;;;;;;;26.00;56.40;;;;;;5133646;27;19934;-60
2021/08/08 10:54:48;;;;;;;;;;;26.00;56.40;;;;;;5133828;27;20399;-60
2021/08/08 10:57:19;;;;;;;;;;;26.00;56.30;;;;;;5131715;27;19946;-60
2021/08/08 10:59:47;;;;;;;;;;;25.90;56.40;;;;;;5118448;27;19945;-60
2021/08/08 11:02:15;;;;;;;;;;;25.90;55.80;;;;;;5118720;27;20292;-60
2021/08/08 11:04:43;;;;;;;;;;;25.90;56.30;;;;;;5134873;27;20010;-60
2021/08/08 11:07:11;;;;;;;;;;;25.80;56.10;;;;;;5133782;27;19930;-61
2021/08/08 11:09:39;;;;;;;;;;;25.70;56.50;;;;;;5134549;27;19942;-59
2021/08/08 11:12:07;;;;;;;;;;;25.70;56.40;;;;;;5133427;27;19924;-60
2021/08/08 11:14:35;;;;;;;;;;;25.70;56.50;;;;;;5134116;27;19923;-60
2021/08/08 11:17:02;;;;;;;;;;;25.80;56.90;;;;;;5133599;27;19924;-60
2021/08/08 11:19:34;;;;;;;;;;;25.70;56.20;;;;;;5133919;27;19930;-60
2021/08/08 11:22:13;;;;;;;;;;;25.80;56.80;;;;;;5116063;27;19923;-60
2021/08/08 11:24:42;;;;;;;;;;;25.80;56.70;;;;;;5134505;27;19963;-60
2021/08/08 11:27:10;;;;;;;;;;;25.90;56.50;;;;;;5134417;27;19923;-60
2021/08/08 11:29:37;;;;;;;;;;;25.90;56.50;;;;;;5132976;27;19931;-60
2021/08/08 11:32:06;;;;;;;;;;;25.90;56.30;;;;;;5133181;27;19930;-60
2021/08/08 11:34:33;;;;;;;;;;;25.90;55.80;;;;;;5131988;27;20264;-60
2021/08/08 11:37:01;;;;;;;;;;;25.90;55.70;;;;;;5134519;27;20328;-59
2021/08/08 11:39:32;;;;;;;;;;;25.90;55.40;;;;;;5134167;27;19924;-60
2021/08/08 11:42:01;;;;;;;;;;;25.90;56.10;;;;;;5134115;27;19924;-60
2021/08/08 11:44:35;;;;;;;;;;;25.90;56.50;;;;;;5134435;27;19924;-60
2021/08/08 11:47:02;;;;;;;;;;;25.80;56.30;;;;;;5116440;27;19923;-60
2021/08/08 11:49:40;;;;;;;;;;;25.80;56.30;;;;;;5134268;27;19938;-61
2021/08/08 11:52:07;;;;;;;;;;;25.80;56.50;;;;;;5115936;27;19945;-60
2021/08/08 11:54:34;;;;;;;;;;;25.90;56.60;;;;;;5132658;27;19945;-61
2021/08/08 11:57:00;;;;;;;;;;;25.80;56.60;;;;;;5124416;27;19923;-60
2021/08/08 11:59:28;;;;;;;;;;;25.80;56.90;;;;;;5123697;27;19924;-60
2021/08/08 12:01:59;;;;;;;;;;;25.70;56.80;;;;;;5133799;27;19972;-59
2021/08/08 12:04:31;;;;;;;;;;;25.70;56.40;;;;;;5132680;27;20002;-59
2021/08/08 12:06:58;;;;;;;;;;;25.70;56.90;;;;;;5131252;27;19924;-60
2021/08/08 12:09:25;;;;;;;;;;;25.70;57.10;;;;;;5115580;28;19931;-60
2021/08/08 12:11:53;;;;;;;;;;;25.70;57.10;;;;;;5132649;27;20378;-60
2021/08/08 12:14:35;;;;;;;;;;;25.70;57.20;;;;;;5114423;27;19942;-60
2021/08/08 12:17:20;;;;;;;;;;;25.70;57.20;;;;;;5132655;27;20316;-59
2021/08/08 12:19:48;;;;;;;;;;;25.70;57.30;;;;;;5130914;27;19923;-59
2021/08/08 12:22:17;;;;;;;;;;;25.60;57.20;;;;;;5133552;27;19924;-60
2021/08/08 12:24:48;;;;;;;;;;;25.60;57.40;;;;;;5133844;27;19930;-60
2021/08/08 12:27:17;;;;;;;;;;;25.60;57.20;;;;;;5131911;28;19928;-59
2021/08/08 12:29:45;;;;;;;;;;;25.60;57.40;;;;;;5131996;27;19972;-60
2021/08/08 12:32:14;;;;;;;;;;;25.60;57.40;;;;;;5132125;28;19931;-60
2021/08/08 12:34:42;;;;;;;;;;;25.60;57.60;;;;;;5131898;28;19923;-59
2021/08/08 12:37:10;;;;;;;;;;;25.60;57.60;;;;;;5133389;28;20018;-59
2021/08/08 12:39:39;;;;;;;;;;;25.60;57.80;;;;;;5133348;28;19938;-61
2021/08/08 12:42:19;;;;;;;;;;;25.60;57.60;;;;;;5133394;28;19945;-59
2021/08/08 12:44:46;;;;;;;;;;;25.60;57.60;;;;;;5117213;28;19961;-60
2021/08/08 12:47:20;;;;;;;;;;;25.60;57.60;;;;;;5133686;28;19953;-60
2021/08/08 12:49:47;;;;;;;;;;;25.60;57.80;;;;;;5116282;28;19924;-60
2021/08/08 12:52:15;;;;;;;;;;;25.60;57.80;;;;;;5133281;28;19938;-60
2021/08/08 12:54:43;;;;;;;;;;;25.60;57.80;;;;;;5132436;28;19935;-60
2021/08/08 12:57:10;;;;;;;;;;;25.60;57.80;;;;;;5114330;28;19924;-59
2021/08/08 12:59:37;;;;;;;;;;;25.60;58.00;;;;;;5115053;28;19924;-59
2021/08/08 13:02:04;;;;;;;;;;;25.50;58.00;;;;;;5113699;28;19924;-60
2021/08/08 13:04:31;;;;;;;;;;;25.50;58.10;;;;;;5130726;28;19930;-60
2021/08/08 13:06:58;;;;;;;;;;;25.50;58.20;;;;;;5132071;28;19953;-60
2021/08/08 13:09:25;;;;;;;;;;;25.40;58.00;;;;;;5131979;28;19923;-60
2021/08/08 13:11:52;;;;;;;;;;;25.40;57.90;;;;;;5130949;28;20298;-60
2021/08/08 13:14:19;;;;;;;;;;;25.40;58.10;;;;;;5132260;28;19924;-60
2021/08/08 13:16:46;;;;;;;;;;;25.40;58.30;;;;;;5131751;28;19964;-60
2021/08/08 13:19:13;;;;;;;;;;;25.40;58.30;;;;;;5115073;28;19928;-60
2021/08/08 13:21:40;;;;;;;;;;;25.50;58.30;;;;;;5133286;28;19928;-59
2021/08/08 13:24:07;;;;;;;;;;;25.50;58.20;;;;;;5133177;28;19930;-60
2021/08/08 13:26:34;;;;;;;;;;;25.50;58.20;;;;;;5131669;28;19924;-60
2021/08/08 13:29:02;;;;;;;;;;;25.50;58.80;;;;;;5132959;28;19924;-60
2021/08/08 13:31:29;;;;;;;;;;;25.60;58.00;;;;;;5125131;28;19953;-60
2021/08/08 13:33:56;;;;;;;;;;;25.60;57.80;;;;;;5118635;28;20371;-59
2021/08/08 13:36:23;;;;;;;;;;;25.60;57.80;;;;;;5130154;28;19923;-60
2021/08/08 13:38:50;;;;;;;;;;;25.60;57.80;;;;;;5116621;28;19924;-60
2021/08/08 13:41:17;;;;;;;;;;;25.60;58.00;;;;;;5135081;27;19923;-60
2021/08/08 13:43:44;;;;;;;;;;;25.60;58.00;;;;;;5135277;27;19924;-59
2021/08/08 13:46:12;;;;;;;;;;;25.70;58.00;;;;;;5136668;27;20114;-60
2021/08/08 13:48:39;;;;;;;;;;;25.70;57.70;;;;;;5135981;27;19978;-60
2021/08/08 13:51:06;;;;;;;;;;;25.70;57.40;;;;;;5100103;28;19928;-60
2021/08/08 13:53:33;;;;;;;;;;;25.70;57.30;;;;;;5136747;27;19992;-60
2021/08/08 13:56:00;;;;;;;;;;;25.80;56.90;;;;;;5136540;27;19929;-60
2021/08/08 13:58:27;;;;;;;;;;;25.70;57.50;;;;;;5133859;27;19923;-61
2021/08/08 14:00:54;;;;;;;;;;;25.70;57.10;;;;;;5136217;27;20029;-60
2021/08/08 14:03:21;;;;;;;;;;;25.70;57.20;;;;;;5136695;27;19923;-60
2021/08/08 14:05:49;;;;;;;;;;;25.70;57.20;;;;;;5133742;27;19979;-60
2021/08/08 14:08:15;;;;;;;;;;;25.70;57.20;;;;;;5136353;27;19923;-60
2021/08/08 14:10:42;;;;;;;;;;;25.70;57.30;;;;;;5134725;27;19978;-60
2021/08/08 14:13:09;;;;;;;;;;;25.70;57.30;;;;;;5135960;27;20383;-60
2021/08/08 14:15:36;;;;;;;;;;;25.70;57.40;;;;;;5135845;27;20002;-60
2021/08/08 14:18:04;;;;;;;;;;;25.70;57.40;;;;;;5136119;27;19923;-60
2021/08/08 14:20:31;;;;;;;;;;;25.70;57.30;;;;;;5135734;27;19924;-60